sensor_id;sensor_type;location;lat;lon;timestamp;temperature;humidity
29431;DHT22;16404;49.902;10.074;2023-04-01T00:00:26;11.70;70.70
29431;DHT22;16404;49.902;10.074;2023-04-01T00:03:11;11.60;70.60
29431;DHT22;16404;49.902;10.074;2023-04-01T00:05:57;11.60;70.50
29431;DHT22;16404;49.902;10.074;2023-04-01T00:08:42;11.70;70.70
29431;DHT22;16404;49.902;10.074;2023-04-01T00:11:26;11.70;70.50
29431;DHT22;16404;49.902;10.074;2023-04-01T00:14:11;11.70;70.50
29431;DHT22;16404;49.902;10.074;2023-04-01T00:16:56;11.80;70.30
29431;DHT22;16404;49.902;10.074;2023-04-01T00:19:40;11.90;70.00
29431;DHT22;16404;49.902;10.074;2023-04-01T00:22:26;11.80;70.00
29431;DHT22;16404;49.902;10.074;2023-04-01T00:25:10;11.90;69.90
29431;DHT22;16404;49.902;10.074;2023-04-01T00:27:55;12.00;69.80
29431;DHT22;16404;49.902;10.074;2023-04-01T00:30:40;12.00;69.40
29431;DHT22;16404;49.902;10.074;2023-04-01T00:33:24;12.10;69.30
29431;DHT22;16404;49.902;10.074;2023-04-01T00:36:18;12.10;69.10
29431;DHT22;16404;49.902;10.074;2023-04-01T00:39:02;12.00;69.10
29431;DHT22;16404;49.902;10.074;2023-04-01T00:41:47;12.10;69.20
29431;DHT22;16404;49.902;10.074;2023-04-01T00:44:34;12.00;69.00
29431;DHT22;16404;49.902;10.074;2023-04-01T00:47:19;12.00;69.00
29431;DHT22;16404;49.902;10.074;2023-04-01T00:50:04;12.10;69.60
29431;DHT22;16404;49.902;10.074;2023-04-01T00:52:49;12.20;68.80
29431;DHT22;16404;49.902;10.074;2023-04-01T00:55:35;12.10;68.40
29431;DHT22;16404;49.902;10.074;2023-04-01T00:58:21;12.10;68.40
29431;DHT22;16404;49.902;10.074;2023-04-01T01:01:08;12.10;68.30
29431;DHT22;16404;49.902;10.074;2023-04-01T01:03:53;12.10;68.30
29431;DHT22;16404;49.902;10.074;2023-04-01T01:16:10;12.20;67.90
29431;DHT22;16404;49.902;10.074;2023-04-01T01:19:16;12.20;67.80
29431;DHT22;16404;49.902;10.074;2023-04-01T01:22:15;12.20;68.00
29431;DHT22;16404;49.902;10.074;2023-04-01T01:25:18;12.10;67.80
29431;DHT22;16404;49.902;10.074;2023-04-01T01:37:12;12.20;67.70
29431;DHT22;16404;49.902;10.074;2023-04-01T01:40:05;12.10;67.50
29431;DHT22;16404;49.902;10.074;2023-04-01T01:42:54;12.20;67.50
29431;DHT22;16404;49.902;10.074;2023-04-01T01:45:44;12.20;67.50
29431;DHT22;16404;49.902;10.074;2023-04-01T01:48:33;12.20;67.40
29431;DHT22;16404;49.902;10.074;2023-04-01T01:51:20;12.20;67.30
29431;DHT22;16404;49.902;10.074;2023-04-01T01:54:05;12.30;67.20
29431;DHT22;16404;49.902;10.074;2023-04-01T01:56:51;12.30;67.00
29431;DHT22;16404;49.902;10.074;2023-04-01T01:59:40;12.30;66.90
29431;DHT22;16404;49.902;10.074;2023-04-01T02:02:29;12.30;66.60
29431;DHT22;16404;49.902;10.074;2023-04-01T02:05:21;12.30;66.70
29431;DHT22;16404;49.902;10.074;2023-04-01T02:08:17;12.20;66.70
29431;DHT22;16404;49.902;10.074;2023-04-01T02:11:12;12.20;66.70
29431;DHT22;16404;49.902;10.074;2023-04-01T02:14:10;12.20;66.60
29431;DHT22;16404;49.902;10.074;2023-04-01T02:16:58;12.30;66.60
29431;DHT22;16404;49.902;10.074;2023-04-01T02:19:51;12.20;66.50
29431;DHT22;16404;49.902;10.074;2023-04-01T02:22:41;12.20;66.50
29431;DHT22;16404;49.902;10.074;2023-04-01T02:25:30;12.20;66.50
29431;DHT22;16404;49.902;10.074;2023-04-01T02:28:17;12.20;66.50
29431;DHT22;16404;49.902;10.074;2023-04-01T02:31:04;12.20;66.30
29431;DHT22;16404;49.902;10.074;2023-04-01T02:33:49;12.20;66.30
29431;DHT22;16404;49.902;10.074;2023-04-01T02:36:35;12.30;66.40
29431;DHT22;16404;49.902;10.074;2023-04-01T02:39:20;12.20;66.30
29431;DHT22;16404;49.902;10.074;2023-04-01T02:42:05;12.30;66.30
29431;DHT22;16404;49.902;10.074;2023-04-01T02:44:50;12.30;66.20
29431;DHT22;16404;49.902;10.074;2023-04-01T02:47:34;12.30;66.10
29431;DHT22;16404;49.902;10.074;2023-04-01T02:50:19;12.30;66.30
29431;DHT22;16404;49.902;10.074;2023-04-01T02:53:03;12.20;66.10
29431;DHT22;16404;49.902;10.074;2023-04-01T02:55:50;12.20;66.10
29431;DHT22;16404;49.902;10.074;2023-04-01T02:58:35;12.20;66.10
29431;DHT22;16404;49.902;10.074;2023-04-01T03:01:21;12.20;66.10
29431;DHT22;16404;49.902;10.074;2023-04-01T03:04:05;12.30;66.10
29431;DHT22;16404;49.902;10.074;2023-04-01T03:06:49;12.30;66.00
29431;DHT22;16404;49.902;10.074;2023-04-01T03:09:36;12.30;65.70
29431;DHT22;16404;49.902;10.074;2023-04-01T03:12:21;12.30;65.80
29431;DHT22;16404;49.902;10.074;2023-04-01T03:15:13;12.30;65.70
29431;DHT22;16404;49.902;10.074;2023-04-01T03:17:58;12.30;65.70
29431;DHT22;16404;49.902;10.074;2023-04-01T03:20:43;12.30;65.60
29431;DHT22;16404;49.902;10.074;2023-04-01T03:23:28;12.40;65.50
29431;DHT22;16404;49.902;10.074;2023-04-01T03:26:13;12.30;65.40
29431;DHT22;16404;49.902;10.074;2023-04-01T03:28:58;12.40;65.40
29431;DHT22;16404;49.902;10.074;2023-04-01T03:31:42;12.30;65.30
29431;DHT22;16404;49.902;10.074;2023-04-01T03:34:27;12.40;65.20
29431;DHT22;16404;49.902;10.074;2023-04-01T03:37:12;12.40;65.20
29431;DHT22;16404;49.902;10.074;2023-04-01T03:39:56;12.40;65.10
29431;DHT22;16404;49.902;10.074;2023-04-01T03:42:41;12.30;65.00
29431;DHT22;16404;49.902;10.074;2023-04-01T03:45:26;12.30;65.10
29431;DHT22;16404;49.902;10.074;2023-04-01T03:48:11;12.30;65.20
29431;DHT22;16404;49.902;10.074;2023-04-01T03:50:55;12.20;65.20
29431;DHT22;16404;49.902;10.074;2023-04-01T03:53:40;12.20;65.20
29431;DHT22;16404;49.902;10.074;2023-04-01T03:56:25;12.30;65.20
29431;DHT22;16404;49.902;10.074;2023-04-01T03:59:11;12.30;65.00
29431;DHT22;16404;49.902;10.074;2023-04-01T04:01:56;12.30;65.00
29431;DHT22;16404;49.902;10.074;2023-04-01T04:04:41;12.30;65.20
29431;DHT22;16404;49.902;10.074;2023-04-01T04:07:27;12.30;65.10
29431;DHT22;16404;49.902;10.074;2023-04-01T04:10:21;12.30;65.20
29431;DHT22;16404;49.902;10.074;2023-04-01T04:13:07;12.30;65.00
29431;DHT22;16404;49.902;10.074;2023-04-01T04:15:57;12.30;64.90
29431;DHT22;16404;49.902;10.074;2023-04-01T04:18:42;12.40;65.00
29431;DHT22;16404;49.902;10.074;2023-04-01T04:21:26;12.30;64.90
29431;DHT22;16404;49.902;10.074;2023-04-01T04:24:11;12.30;65.00
29431;DHT22;16404;49.902;10.074;2023-04-01T04:27:14;12.40;64.90
29431;DHT22;16404;49.902;10.074;2023-04-01T04:30:12;12.40;64.70
29431;DHT22;16404;49.902;10.074;2023-04-01T04:32:57;12.40;64.70
29431;DHT22;16404;49.902;10.074;2023-04-01T04:35:42;12.40;64.70
29431;DHT22;16404;49.902;10.074;2023-04-01T04:38:27;12.40;64.60
29431;DHT22;16404;49.902;10.074;2023-04-01T04:41:13;12.40;64.70
29431;DHT22;16404;49.902;10.074;2023-04-01T04:43:59;12.50;64.60
29431;DHT22;16404;49.902;10.074;2023-04-01T04:46:44;12.50;64.40
29431;DHT22;16404;49.902;10.074;2023-04-01T04:49:33;12.50;64.40
29431;DHT22;16404;49.902;10.074;2023-04-01T04:52:23;12.60;64.30
29431;DHT22;16404;49.902;10.074;2023-04-01T04:55:08;12.60;64.20
29431;DHT22;16404;49.902;10.074;2023-04-01T04:57:52;12.60;64.20
29431;DHT22;16404;49.902;10.074;2023-04-01T05:00:37;12.60;64.20
29431;DHT22;16404;49.902;10.074;2023-04-01T05:03:24;12.60;64.00
29431;DHT22;16404;49.902;10.074;2023-04-01T05:06:11;12.60;64.00
29431;DHT22;16404;49.902;10.074;2023-04-01T05:08:56;12.70;64.10
29431;DHT22;16404;49.902;10.074;2023-04-01T05:11:41;12.70;64.10
29431;DHT22;16404;49.902;10.074;2023-04-01T05:14:25;12.70;64.10
29431;DHT22;16404;49.902;10.074;2023-04-01T05:17:21;12.70;64.10
29431;DHT22;16404;49.902;10.074;2023-04-01T05:20:06;12.60;64.20
29431;DHT22;16404;49.902;10.074;2023-04-01T05:22:56;12.50;64.50
29431;DHT22;16404;49.902;10.074;2023-04-01T05:25:41;12.50;64.60
29431;DHT22;16404;49.902;10.074;2023-04-01T05:28:26;12.50;64.80
29431;DHT22;16404;49.902;10.074;2023-04-01T05:31:11;12.50;64.70
29431;DHT22;16404;49.902;10.074;2023-04-01T05:33:58;12.50;64.70
29431;DHT22;16404;49.902;10.074;2023-04-01T05:36:43;12.50;64.70
29431;DHT22;16404;49.902;10.074;2023-04-01T05:39:27;12.50;64.80
29431;DHT22;16404;49.902;10.074;2023-04-01T05:42:12;12.50;64.80
29431;DHT22;16404;49.902;10.074;2023-04-01T05:44:59;12.40;64.70
29431;DHT22;16404;49.902;10.074;2023-04-01T05:48:18;12.40;64.80
29431;DHT22;16404;49.902;10.074;2023-04-01T05:51:04;12.40;64.90
29431;DHT22;16404;49.902;10.074;2023-04-01T05:53:48;12.40;65.00
29431;DHT22;16404;49.902;10.074;2023-04-01T05:56:33;12.30;65.00
29431;DHT22;16404;49.902;10.074;2023-04-01T05:59:19;12.40;65.10
29431;DHT22;16404;49.902;10.074;2023-04-01T06:02:04;12.40;65.20
29431;DHT22;16404;49.902;10.074;2023-04-01T06:04:49;12.40;65.10
29431;DHT22;16404;49.902;10.074;2023-04-01T06:07:37;12.40;65.30
29431;DHT22;16404;49.902;10.074;2023-04-01T06:10:44;12.40;65.20
29431;DHT22;16404;49.902;10.074;2023-04-01T06:13:37;12.30;65.40
29431;DHT22;16404;49.902;10.074;2023-04-01T06:19:36;12.20;65.80
29431;DHT22;16404;49.902;10.074;2023-04-01T06:22:32;12.30;65.90
29431;DHT22;16404;49.902;10.074;2023-04-01T06:25:30;12.30;65.90
29431;DHT22;16404;49.902;10.074;2023-04-01T06:54:40;12.50;66.10
29431;DHT22;16404;49.902;10.074;2023-04-01T06:58:00;12.50;66.30
29431;DHT22;16404;49.902;10.074;2023-04-01T07:00:50;12.50;66.20
29431;DHT22;16404;49.902;10.074;2023-04-01T07:03:41;12.60;66.40
29431;DHT22;16404;49.902;10.074;2023-04-01T07:06:43;12.60;66.30
29431;DHT22;16404;49.902;10.074;2023-04-01T07:09:39;12.60;66.20
29431;DHT22;16404;49.902;10.074;2023-04-01T07:12:55;12.70;66.20
29431;DHT22;16404;49.902;10.074;2023-04-01T07:16:19;12.80;66.20
29431;DHT22;16404;49.902;10.074;2023-04-01T07:19:34;12.80;65.80
29431;DHT22;16404;49.902;10.074;2023-04-01T07:22:27;12.90;66.00
29431;DHT22;16404;49.902;10.074;2023-04-01T07:25:36;13.10;65.60
29431;DHT22;16404;49.902;10.074;2023-04-01T07:28:41;13.20;65.00
29431;DHT22;16404;49.902;10.074;2023-04-01T07:41:10;13.30;63.90
29431;DHT22;16404;49.902;10.074;2023-04-01T07:50:12;13.40;64.20
29431;DHT22;16404;49.902;10.074;2023-04-01T07:53:18;13.40;64.00
29431;DHT22;16404;49.902;10.074;2023-04-01T07:56:29;13.40;64.20
29431;DHT22;16404;49.902;10.074;2023-04-01T08:08:56;13.40;64.60
29431;DHT22;16404;49.902;10.074;2023-04-01T08:11:59;13.50;64.50
29431;DHT22;16404;49.902;10.074;2023-04-01T08:15:27;13.60;64.30
29431;DHT22;16404;49.902;10.074;2023-04-01T08:22:02;13.50;64.10
29431;DHT22;16404;49.902;10.074;2023-04-01T08:24:49;13.40;64.10
29431;DHT22;16404;49.902;10.074;2023-04-01T08:27:47;13.40;64.40
29431;DHT22;16404;49.902;10.074;2023-04-01T08:30:45;13.20;64.20
29431;DHT22;16404;49.902;10.074;2023-04-01T08:33:33;13.10;64.50
29431;DHT22;16404;49.902;10.074;2023-04-01T08:36:29;13.20;64.80
29431;DHT22;16404;49.902;10.074;2023-04-01T08:39:37;13.20;64.80
29431;DHT22;16404;49.902;10.074;2023-04-01T08:49:04;13.20;65.20
29431;DHT22;16404;49.902;10.074;2023-04-01T08:55:25;13.40;66.10
29431;DHT22;16404;49.902;10.074;2023-04-01T09:23:29;13.40;66.20
29431;DHT22;16404;49.902;10.074;2023-04-01T09:29:22;13.40;66.20
29431;DHT22;16404;49.902;10.074;2023-04-01T09:41:31;13.70;66.20
29431;DHT22;16404;49.902;10.074;2023-04-01T09:44:34;13.70;66.10
29431;DHT22;16404;49.902;10.074;2023-04-01T09:51:00;14.00;66.00
29431;DHT22;16404;49.902;10.074;2023-04-01T10:18:41;14.10;66.60
29431;DHT22;16404;49.902;10.074;2023-04-01T10:27:46;14.40;65.20
29431;DHT22;16404;49.902;10.074;2023-04-01T10:31:35;14.50;64.60
29431;DHT22;16404;49.902;10.074;2023-04-01T10:34:39;14.50;64.70
29431;DHT22;16404;49.902;10.074;2023-04-01T10:44:42;14.80;63.50
29431;DHT22;16404;49.902;10.074;2023-04-01T10:51:18;15.00;63.80
29431;DHT22;16404;49.902;10.074;2023-04-01T11:11:26;15.40;63.30
29431;DHT22;16404;49.902;10.074;2023-04-01T11:30:53;15.80;63.40
29431;DHT22;16404;49.902;10.074;2023-04-01T11:40:39;15.70;63.30
29431;DHT22;16404;49.902;10.074;2023-04-01T11:47:55;15.60;63.70
29431;DHT22;16404;49.902;10.074;2023-04-01T11:50:49;15.60;63.70
29431;DHT22;16404;49.902;10.074;2023-04-01T12:09:04;15.70;65.50
29431;DHT22;16404;49.902;10.074;2023-04-01T12:21:09;15.70;66.20
29431;DHT22;16404;49.902;10.074;2023-04-01T12:30:32;15.40;65.70
29431;DHT22;16404;49.902;10.074;2023-04-01T12:33:50;15.30;66.00
29431;DHT22;16404;49.902;10.074;2023-04-01T12:37:02;15.30;66.20
29431;DHT22;16404;49.902;10.074;2023-04-01T12:43:34;15.40;66.60
29431;DHT22;16404;49.902;10.074;2023-04-01T12:55:49;15.30;67.00
29431;DHT22;16404;49.902;10.074;2023-04-01T13:02:13;15.40;67.00
29431;DHT22;16404;49.902;10.074;2023-04-01T13:05:38;15.40;66.90
29431;DHT22;16404;49.902;10.074;2023-04-01T13:14:50;15.40;67.40
29431;DHT22;16404;49.902;10.074;2023-04-01T13:17:50;15.40;67.40
29431;DHT22;16404;49.902;10.074;2023-04-01T13:29:41;15.70;67.30
29431;DHT22;16404;49.902;10.074;2023-04-01T13:32:47;15.60;66.60
29431;DHT22;16404;49.902;10.074;2023-04-01T13:42:17;15.50;66.80
29431;DHT22;16404;49.902;10.074;2023-04-01T14:04:10;15.50;67.30
29431;DHT22;16404;49.902;10.074;2023-04-01T14:19:57;15.70;67.10
29431;DHT22;16404;49.902;10.074;2023-04-01T14:26:16;15.60;67.00
29431;DHT22;16404;49.902;10.074;2023-04-01T14:41:32;15.30;68.10
29431;DHT22;16404;49.902;10.074;2023-04-01T14:47:53;15.30;68.40
29431;DHT22;16404;49.902;10.074;2023-04-01T14:50:46;15.40;68.30
29431;DHT22;16404;49.902;10.074;2023-04-01T14:53:38;15.40;68.50
29431;DHT22;16404;49.902;10.074;2023-04-01T14:56:49;15.40;68.10
29431;DHT22;16404;49.902;10.074;2023-04-01T14:59:40;15.30;68.60
29431;DHT22;16404;49.902;10.074;2023-04-01T15:02:45;15.30;68.30
29431;DHT22;16404;49.902;10.074;2023-04-01T15:11:42;15.30;68.20
29431;DHT22;16404;49.902;10.074;2023-04-01T15:33:08;15.00;69.30
29431;DHT22;16404;49.902;10.074;2023-04-01T15:39:18;15.10;69.20
29431;DHT22;16404;49.902;10.074;2023-04-01T15:42:26;15.10;69.00
29431;DHT22;16404;49.902;10.074;2023-04-01T15:45:35;15.00;68.80
29431;DHT22;16404;49.902;10.074;2023-04-01T16:00:44;14.90;68.80
29431;DHT22;16404;49.902;10.074;2023-04-01T16:03:49;14.80;69.00
29431;DHT22;16404;49.902;10.074;2023-04-01T16:19:04;14.60;69.30
29431;DHT22;16404;49.902;10.074;2023-04-01T16:31:09;14.40;69.70
29431;DHT22;16404;49.902;10.074;2023-04-01T16:34:19;14.40;69.90
29431;DHT22;16404;49.902;10.074;2023-04-01T16:37:12;14.40;69.90
29431;DHT22;16404;49.902;10.074;2023-04-01T16:43:38;14.40;69.70
29431;DHT22;16404;49.902;10.074;2023-04-01T16:46:35;14.40;69.70
29431;DHT22;16404;49.902;10.074;2023-04-01T16:52:36;14.40;70.20
29431;DHT22;16404;49.902;10.074;2023-04-01T16:56:20;14.40;70.20
29431;DHT22;16404;49.902;10.074;2023-04-01T16:59:02;14.40;70.20
29431;DHT22;16404;49.902;10.074;2023-04-01T17:02:15;14.30;70.40
29431;DHT22;16404;49.902;10.074;2023-04-01T17:05:08;14.30;70.40
29431;DHT22;16404;49.902;10.074;2023-04-01T17:08:09;14.40;70.20
29431;DHT22;16404;49.902;10.074;2023-04-01T17:11:19;14.40;70.30
29431;DHT22;16404;49.902;10.074;2023-04-01T17:14:45;14.30;70.30
29431;DHT22;16404;49.902;10.074;2023-04-01T17:21:02;14.20;70.80
29431;DHT22;16404;49.902;10.074;2023-04-01T17:24:06;14.10;70.80
29431;DHT22;16404;49.902;10.074;2023-04-01T17:33:30;14.00;71.30
29431;DHT22;16404;49.902;10.074;2023-04-01T17:39:38;14.00;71.30
29431;DHT22;16404;49.902;10.074;2023-04-01T17:42:46;14.10;71.20
29431;DHT22;16404;49.902;10.074;2023-04-01T17:48:42;14.00;71.20
29431;DHT22;16404;49.902;10.074;2023-04-01T17:51:42;13.90;71.30
29431;DHT22;16404;49.902;10.074;2023-04-01T17:54:50;13.90;71.60
29431;DHT22;16404;49.902;10.074;2023-04-01T17:57:59;13.80;71.60
29431;DHT22;16404;49.902;10.074;2023-04-01T18:04:15;13.80;71.90
29431;DHT22;16404;49.902;10.074;2023-04-01T18:07:26;13.70;71.80
29431;DHT22;16404;49.902;10.074;2023-04-01T18:13:46;13.60;71.80
29431;DHT22;16404;49.902;10.074;2023-04-01T18:25:43;13.40;71.80
29431;DHT22;16404;49.902;10.074;2023-04-01T18:28:42;13.30;72.00
29431;DHT22;16404;49.902;10.074;2023-04-01T18:31:42;13.20;72.30
29431;DHT22;16404;49.902;10.074;2023-04-01T18:49:07;13.20;72.50
29431;DHT22;16404;49.902;10.074;2023-04-01T18:52:02;13.30;72.40
29431;DHT22;16404;49.902;10.074;2023-04-01T18:57:54;13.30;72.20
29431;DHT22;16404;49.902;10.074;2023-04-01T19:00:48;13.30;72.10
29431;DHT22;16404;49.902;10.074;2023-04-01T19:03:52;13.30;72.00
29431;DHT22;16404;49.902;10.074;2023-04-01T19:06:55;13.30;72.00
29431;DHT22;16404;49.902;10.074;2023-04-01T19:09:46;13.20;72.10
29431;DHT22;16404;49.902;10.074;2023-04-01T19:18:22;13.10;72.40
29431;DHT22;16404;49.902;10.074;2023-04-01T19:24:43;13.20;72.40
29431;DHT22;16404;49.902;10.074;2023-04-01T19:27:42;13.30;72.10
29431;DHT22;16404;49.902;10.074;2023-04-01T19:30:47;13.30;72.00
29431;DHT22;16404;49.902;10.074;2023-04-01T19:33:37;13.20;72.10
29431;DHT22;16404;49.902;10.074;2023-04-01T19:36:44;13.30;72.00
29431;DHT22;16404;49.902;10.074;2023-04-01T19:40:25;13.20;72.20
29431;DHT22;16404;49.902;10.074;2023-04-01T19:49:12;13.30;72.20
29431;DHT22;16404;49.902;10.074;2023-04-01T19:52:23;13.30;72.00
29431;DHT22;16404;49.902;10.074;2023-04-01T19:55:37;13.40;71.70
29431;DHT22;16404;49.902;10.074;2023-04-01T20:01:44;13.60;70.30
29431;DHT22;16404;49.902;10.074;2023-04-01T20:04:42;13.50;70.20
29431;DHT22;16404;49.902;10.074;2023-04-01T20:07:40;13.50;70.20
29431;DHT22;16404;49.902;10.074;2023-04-01T20:14:15;13.40;70.60
29431;DHT22;16404;49.902;10.074;2023-04-01T20:20:24;13.40;70.50
29431;DHT22;16404;49.902;10.074;2023-04-01T20:26:06;13.30;70.80
29431;DHT22;16404;49.902;10.074;2023-04-01T20:29:27;13.30;70.90
29431;DHT22;16404;49.902;10.074;2023-04-01T20:45:51;13.50;70.40
29431;DHT22;16404;49.902;10.074;2023-04-01T20:58:35;13.80;69.40
29431;DHT22;16404;49.902;10.074;2023-04-01T21:13:52;13.80;69.80
29431;DHT22;16404;49.902;10.074;2023-04-01T21:36:10;13.90;69.70
29431;DHT22;16404;49.902;10.074;2023-04-01T22:07:37;13.50;70.70
29431;DHT22;16404;49.902;10.074;2023-04-01T22:13:23;13.60;70.60
29431;DHT22;16404;49.902;10.074;2023-04-01T22:19:23;13.50;70.60
29431;DHT22;16404;49.902;10.074;2023-04-01T22:22:26;13.50;70.40
29431;DHT22;16404;49.902;10.074;2023-04-01T22:25:29;13.40;70.40
29431;DHT22;16404;49.902;10.074;2023-04-01T22:28:17;13.40;70.50
29431;DHT22;16404;49.902;10.074;2023-04-01T22:31:04;13.40;70.40
29431;DHT22;16404;49.902;10.074;2023-04-01T22:34:12;13.40;70.50
29431;DHT22;16404;49.902;10.074;2023-04-01T22:40:25;13.40;70.40
29431;DHT22;16404;49.902;10.074;2023-04-01T22:43:34;13.30;70.60
29431;DHT22;16404;49.902;10.074;2023-04-01T22:49:36;13.10;70.80
29431;DHT22;16404;49.902;10.074;2023-04-01T22:53:03;13.00;71.00
29431;DHT22;16404;49.902;10.074;2023-04-01T22:55:38;13.00;71.00
29431;DHT22;16404;49.902;10.074;2023-04-01T22:58:36;13.00;71.10
29431;DHT22;16404;49.902;10.074;2023-04-01T23:01:27;12.90;71.20
29431;DHT22;16404;49.902;10.074;2023-04-01T23:04:16;12.90;71.30
29431;DHT22;16404;49.902;10.074;2023-04-01T23:07:05;12.90;71.40
29431;DHT22;16404;49.902;10.074;2023-04-01T23:10:06;12.90;71.50
29431;DHT22;16404;49.902;10.074;2023-04-01T23:12:59;12.90;71.50
29431;DHT22;16404;49.902;10.074;2023-04-01T23:15:46;12.90;71.50
29431;DHT22;16404;49.902;10.074;2023-04-01T23:21:42;12.90;71.60
29431;DHT22;16404;49.902;10.074;2023-04-01T23:24:45;12.90;71.40
29431;DHT22;16404;49.902;10.074;2023-04-01T23:27:37;12.90;71.50
29431;DHT22;16404;49.902;10.074;2023-04-01T23:30:47;12.90;71.40
29431;DHT22;16404;49.902;10.074;2023-04-01T23:33:32;13.00;71.50
29431;DHT22;16404;49.902;10.074;2023-04-01T23:36:17;13.00;71.00
29431;DHT22;16404;49.902;10.074;2023-04-01T23:39:05;13.00;71.10
29431;DHT22;16404;49.902;10.074;2023-04-01T23:41:54;13.10;71.00
29431;DHT22;16404;49.902;10.074;2023-04-01T23:44:40;13.10;70.60
29431;DHT22;16404;49.902;10.074;2023-04-01T23:47:38;13.20;70.40
29431;DHT22;16404;49.902;10.074;2023-04-01T23:50:24;13.30;70.20
29431;DHT22;16404;49.902;10.074;2023-04-01T23:53:19;13.40;69.90
29431;DHT22;16404;49.902;10.074;2023-04-01T23:56:05;13.40;69.80
29431;DHT22;16404;49.902;10.074;2023-04-01T23:58:52;13.40;69.50
